Portada
METAR-TAF:

METAR-TAF

Aeropuertos :

Kushiro, Japón

latitud: 43-02N, longitud: 144-12E, altitud: 95 m

Observación

El informe se hizo hace 5 horas y 48 minutos, a las 11:00 UTC
Viento 4 kt del oeste-noroeste
Temperatura 9°C
Humedad 66%
Presión 1020 hPa
Visibilidad 10 km o más
Escasas nubes a una altura de 3000 ft

METAR: RJCK 241100Z 30004KT 9999 FEW030 09/03 Q1020

Hora: 01:48 (16:48 UTC)

Pronóstico

El informe se hizo hace 5 horas y 40 minutos, a las 11:08 UTC
Pronóstico válido del 24 a las 12 UTC al 25 a las 18 UTC
Viento 5 kt del noroeste
Visibilidad 10 km o más
Escasas nubes a una altura de 500 ft
Nubes dispersas a una altura de 1500 ft
Evolucionando progresivamente
del 24 a las 22 UTC al 25 a las 00 UTC
Viento 10 kt del sur-suroeste
Evolucionando progresivamente
del 25 a las 09 UTC al 25 a las 12 UTC
Viento 7 kt del noroeste

TAF: RJCK 241108Z 2412/2518 32005KT 9999 FEW005 SCT015 BECMG 2422/2500 20010KT BECMG 2509/2512 32007KT

Observaciones y pronósticos meteorológicos de más de 4000 aeropuertos (mensajes METAR y TAF).

Los puntos amarillos y rojos representan las estaciones disponibles.

Ponga el ratón en el punto deseado para ver el nombre de la estación.

Haga clic para ver las observaciones y los pronósticos meteorológicos.

Para cambiar el mapa : haga clic en los botones verdes con una cruz de color negro para hacer un zoom, en el botón verde con un guión para alejar o en las flechas verdes para mapas adyacentes.


METAR-TAF: